createdAt,value
2022-11-13T00:01:18.094Z,26.92
2022-11-13T00:03:45.214Z,45.67
2022-11-13T00:06:13.855Z,126.50
2022-11-13T00:08:41.523Z,119.20
2022-11-13T00:11:18.659Z,162.82
2022-11-13T00:13:46.295Z,96.43
2022-11-13T00:16:19.818Z,7.57
2022-11-13T00:18:47.783Z,131.23
2022-11-13T00:21:22.166Z,64.70
2022-11-13T00:23:50.074Z,102.85
2022-11-13T00:26:20.352Z,91.20
2022-11-13T00:28:51.806Z,65.70
2022-11-13T00:31:18.518Z,40.20
2022-11-13T00:34:09.056Z,144.05
2022-11-13T00:36:31.979Z,215.73
2022-11-13T00:38:58.842Z,162.48
2022-11-13T00:41:25.626Z,391.55
2022-11-13T00:43:52.524Z,178.20
2022-11-13T00:46:19.898Z,138.65
2022-11-13T00:48:46.672Z,41.40
2022-11-13T00:51:13.644Z,102.95
2022-11-13T00:53:40.390Z,152.35
2022-11-13T00:56:07.331Z,100.82
2022-11-13T00:58:34.097Z,102.20
2022-11-13T01:01:08.051Z,95.53
2022-11-13T01:03:34.878Z,91.95
2022-11-13T01:06:10.470Z,69.93
2022-11-13T01:08:37.257Z,70.25
2022-11-13T01:11:14.058Z,92.35
2022-11-13T01:13:43.476Z,86.63
2022-11-13T01:16:12.676Z,99.30
2022-11-13T01:18:41.325Z,114.22
2022-11-13T01:21:20.651Z,92.38
2022-11-13T01:23:47.906Z,100.85
2022-11-13T01:26:24.881Z,112.47
2022-11-13T01:28:51.730Z,54.35
2022-11-13T01:31:26.054Z,99.45
2022-11-13T01:33:53.142Z,273.10
2022-11-13T01:36:24.471Z,127.22
2022-11-13T01:41:27.643Z,63.67
2022-11-13T01:43:55.274Z,63.75
2022-11-13T01:46:31.087Z,124.28
2022-11-13T01:49:15.822Z,110.93
2022-11-13T01:52:01.075Z,72.78
2022-11-13T01:54:43.999Z,95.63
2022-11-13T01:57:11.653Z,90.07
2022-11-13T01:59:42.112Z,101.00
2022-11-13T02:02:09.284Z,77.27
2022-11-13T02:04:36.486Z,31.83
2022-11-13T02:07:08.631Z,71.50
2022-11-13T02:09:39.692Z,41.38
2022-11-13T02:12:10.426Z,9.93
2022-11-13T02:14:41.397Z,60.92
2022-11-13T02:17:14.589Z,53.28
2022-11-13T02:19:48.211Z,10.93
2022-11-13T02:22:44.697Z,76.30
2022-11-13T02:25:13.220Z,41.42
2022-11-13T02:27:50.607Z,38.15
2022-11-13T02:30:26.896Z,19.90
2022-11-13T02:32:57.151Z,48.97
2022-11-13T02:35:28.267Z,24.92
2022-11-13T02:37:57.730Z,38.88
2022-11-13T02:40:24.927Z,19.52
2022-11-13T02:42:51.732Z,27.23
2022-11-13T02:45:18.747Z,44.58
2022-11-13T02:47:45.614Z,27.80
2022-11-13T02:50:13.639Z,55.70
2022-11-13T02:52:40.714Z,56.90
2022-11-13T02:55:08.061Z,41.28
2022-11-13T02:57:34.984Z,42.45
2022-11-13T03:00:02.088Z,19.13
2022-11-13T03:02:28.846Z,25.25
2022-11-13T03:05:12.864Z,24.80
2022-11-13T03:07:40.973Z,28.33
2022-11-13T03:10:08.882Z,18.50
2022-11-13T03:12:36.066Z,31.15
2022-11-13T03:15:03.760Z,26.33
2022-11-13T03:17:34.662Z,23.77
2022-11-13T03:20:01.813Z,28.77
2022-11-13T03:22:28.667Z,23.85
2022-11-13T03:24:55.391Z,16.98
2022-11-13T03:27:22.358Z,29.50
2022-11-13T03:29:49.294Z,29.50
2022-11-13T03:32:16.190Z,24.98
2022-11-13T03:34:42.979Z,27.15
2022-11-13T03:37:09.751Z,31.17
2022-11-13T03:39:36.537Z,29.35
2022-11-13T03:42:03.274Z,32.33
2022-11-13T03:44:30.024Z,31.27
2022-11-13T03:47:09.660Z,30.83
2022-11-13T03:50:20.345Z,31.98
2022-11-13T03:53:08.446Z,42.95
2022-11-13T03:56:12.430Z,35.92
2022-11-13T03:59:09.761Z,21.80
2022-11-13T04:02:06.429Z,22.13
2022-11-13T04:05:04.649Z,21.27
2022-11-13T04:07:45.982Z,23.75
2022-11-13T04:11:02.670Z,14.65
2022-11-13T04:13:40.339Z,26.50
2022-11-13T04:16:59.558Z,32.08
2022-11-13T04:19:31.630Z,28.75
2022-11-13T04:21:58.756Z,15.15
2022-11-13T04:24:31.658Z,15.52
2022-11-13T04:27:03.133Z,35.85
2022-11-13T04:29:38.468Z,21.35
2022-11-13T04:32:15.529Z,19.23
2022-11-13T04:34:48.506Z,20.80
2022-11-13T04:37:23.903Z,8.52
2022-11-13T04:39:50.649Z,10.73
2022-11-13T04:42:36.266Z,11.05
2022-11-13T04:45:03.154Z,9.85
2022-11-13T04:47:29.899Z,7.07
2022-11-13T04:49:56.635Z,15.38
2022-11-13T04:52:23.390Z,19.65
2022-11-13T04:54:50.130Z,13.20
2022-11-13T04:57:16.867Z,20.20
2022-11-13T04:59:43.596Z,28.50
2022-11-13T05:02:10.342Z,5.25
2022-11-13T05:04:37.078Z,9.55
2022-11-13T05:07:03.905Z,26.50
2022-11-13T05:09:30.712Z,26.55
2022-11-13T05:11:57.457Z,19.33
2022-11-13T05:14:24.251Z,46.70
2022-11-13T05:16:51.622Z,50.58
2022-11-13T05:19:18.518Z,31.88
2022-11-13T05:21:45.365Z,39.25
2022-11-13T05:24:12.146Z,51.10
2022-11-13T05:26:39.862Z,41.97
2022-11-13T05:29:06.916Z,14.82
2022-11-13T05:31:33.934Z,13.70
2022-11-13T05:34:05.481Z,6.90
2022-11-13T05:36:36.914Z,46.17
2022-11-13T05:41:59.739Z,36.00
2022-11-13T05:44:26.589Z,38.20
2022-11-13T05:46:53.309Z,55.28
2022-11-13T05:49:20.153Z,17.27
2022-11-13T05:51:46.874Z,46.15
2022-11-13T05:54:13.662Z,5.85
2022-11-13T05:56:40.530Z,44.92
2022-11-13T05:59:07.507Z,6.50
2022-11-13T06:01:37.787Z,17.40
2022-11-13T06:04:06.747Z,7.15
2022-11-13T06:06:34.220Z,9.98
2022-11-13T06:09:04.142Z,46.83
2022-11-13T06:11:31.339Z,13.48
2022-11-13T06:13:59.482Z,18.33
2022-11-13T06:16:35.473Z,39.28
2022-11-13T06:19:06.143Z,100.38
2022-11-13T06:21:35.622Z,43.95
2022-11-13T06:24:02.635Z,23.90
2022-11-13T06:26:38.777Z,24.75
2022-11-13T06:29:07.478Z,33.50
2022-11-13T06:31:36.626Z,43.95
2022-11-13T06:34:04.144Z,40.97
2022-11-13T06:36:34.543Z,76.97
2022-11-13T06:39:01.668Z,19.80
2022-11-13T06:41:31.245Z,67.68
2022-11-13T06:44:02.610Z,50.92
2022-11-13T06:46:31.029Z,29.55
2022-11-13T06:48:58.271Z,33.33
2022-11-13T06:51:28.953Z,14.07
2022-11-13T06:53:56.854Z,14.23
2022-11-13T06:56:25.019Z,94.53
2022-11-13T06:58:52.281Z,67.55
2022-11-13T07:01:24.840Z,45.88
2022-11-13T07:03:51.804Z,74.05
2022-11-13T07:06:21.948Z,16.50
2022-11-13T07:08:49.647Z,76.78
2022-11-13T07:11:19.958Z,63.92
2022-11-13T07:13:47.534Z,72.28
2022-11-13T07:16:17.771Z,57.33
2022-11-13T07:18:51.374Z,48.58
2022-11-13T07:21:18.617Z,53.15
2022-11-13T07:23:49.109Z,54.65
2022-11-13T07:26:16.333Z,126.05
2022-11-13T07:28:43.213Z,63.80
2022-11-13T07:31:12.926Z,49.75
2022-11-13T07:33:39.689Z,23.67
2022-11-13T07:36:08.217Z,46.25
2022-11-13T07:38:35.129Z,61.13
2022-11-13T07:41:02.632Z,44.40
2022-11-13T07:43:29.594Z,58.33
2022-11-13T07:45:59.191Z,43.90
2022-11-13T07:48:30.375Z,37.67
2022-11-13T07:53:28.466Z,50.00
2022-11-13T07:55:55.232Z,60.35
2022-11-13T07:58:22.022Z,131.23
2022-11-13T08:00:48.815Z,62.38
2022-11-13T08:03:18.610Z,48.97
2022-11-13T08:05:45.400Z,54.63
2022-11-13T08:08:14.339Z,35.28
2022-11-13T08:10:41.918Z,9.02
2022-11-13T08:13:10.313Z,27.58
2022-11-13T08:15:37.207Z,22.33
2022-11-13T08:18:05.214Z,29.25
2022-11-13T08:20:32.544Z,18.17
2022-11-13T08:23:01.825Z,17.25
2022-11-13T08:25:30.786Z,17.80
2022-11-13T08:27:57.626Z,7.50
2022-11-13T08:30:26.714Z,14.70
2022-11-13T08:32:53.619Z,9.80
2022-11-13T08:35:25.237Z,6.38
2022-11-13T08:38:01.276Z,8.63
2022-11-13T08:40:28.104Z,14.68
2022-11-13T08:43:02.805Z,10.20
2022-11-13T08:45:30.894Z,11.55
2022-11-13T08:48:02.532Z,16.00
2022-11-13T08:50:30.598Z,19.80
2022-11-13T08:53:00.137Z,20.55
2022-11-13T08:55:27.969Z,19.48
2022-11-13T08:57:58.269Z,12.38
2022-11-13T09:00:25.179Z,12.35
2022-11-13T09:02:56.679Z,12.23
2022-11-13T09:07:51.938Z,13.32
2022-11-13T09:10:18.859Z,5.38
2022-11-13T09:12:45.623Z,12.20
2022-11-13T09:15:12.739Z,8.63
2022-11-13T09:17:39.606Z,7.40
2022-11-13T09:20:11.239Z,8.20
2022-11-13T09:22:40.254Z,8.00
2022-11-13T09:25:07.547Z,10.57
2022-11-13T09:27:34.466Z,11.25
2022-11-13T09:30:01.213Z,8.38
2022-11-13T09:32:27.969Z,9.20
2022-11-13T09:34:54.750Z,7.22
2022-11-13T09:37:21.500Z,6.88
2022-11-13T09:39:48.574Z,12.23
2022-11-13T09:42:27.894Z,8.15
2022-11-13T09:45:17.072Z,7.75
2022-11-13T09:47:46.531Z,7.20
2022-11-13T09:50:30.391Z,7.25
2022-11-13T09:52:57.962Z,7.00
2022-11-13T09:55:50.820Z,8.13
2022-11-13T09:58:57.341Z,7.72
2022-11-13T10:02:24.403Z,7.10
2022-11-13T10:05:24.195Z,6.30
2022-11-13T10:08:42.724Z,6.43
2022-11-13T10:15:41.342Z,7.10
2022-11-13T10:18:32.456Z,7.25
2022-11-13T10:21:28.066Z,7.47
2022-11-13T10:24:00.131Z,6.47
2022-11-13T10:26:30.556Z,6.75
2022-11-13T10:29:20.742Z,7.37
2022-11-13T10:31:53.119Z,6.68
2022-11-13T10:34:21.275Z,7.45
2022-11-13T10:37:15.578Z,7.47
2022-11-13T10:39:46.415Z,8.25
2022-11-13T10:42:32.202Z,6.85
2022-11-13T10:45:08.247Z,7.20
2022-11-13T10:48:08.960Z,6.65
2022-11-13T10:50:38.810Z,6.18
2022-11-13T10:53:19.991Z,6.53
2022-11-13T10:55:57.165Z,6.85
2022-11-13T10:58:28.142Z,6.88
2022-11-13T11:00:56.964Z,7.68
2022-11-13T11:03:27.315Z,8.10
2022-11-13T11:06:05.959Z,7.15
2022-11-13T11:08:35.759Z,6.32
2022-11-13T11:11:37.166Z,8.40
2022-11-13T11:14:28.519Z,7.50
2022-11-13T11:16:59.461Z,8.45
2022-11-13T11:19:36.106Z,10.25
2022-11-13T11:22:16.087Z,8.65
2022-11-13T11:25:27.334Z,11.35
2022-11-13T11:28:17.242Z,7.15
2022-11-13T11:30:55.250Z,7.68
2022-11-13T11:33:36.203Z,8.18
2022-11-13T11:36:31.988Z,6.72
2022-11-13T11:39:06.354Z,8.88
2022-11-13T11:41:43.557Z,8.65
2022-11-13T11:44:36.255Z,9.07
2022-11-13T11:47:16.563Z,8.75
2022-11-13T11:49:45.449Z,9.52
2022-11-13T11:52:46.859Z,10.02
2022-11-13T11:55:44.234Z,9.98
2022-11-13T11:58:52.447Z,9.95
2022-11-13T12:01:53.084Z,9.80
2022-11-13T12:04:58.580Z,9.57
2022-11-13T12:07:53.407Z,10.48
2022-11-13T12:10:48.900Z,9.45
2022-11-13T12:14:01.345Z,45.90
2022-11-13T12:17:18.173Z,14.38
2022-11-13T12:20:32.613Z,17.08
2022-11-13T12:23:22.641Z,11.95
2022-11-13T12:26:14.122Z,11.80
2022-11-13T12:29:29.419Z,40.88
2022-11-13T12:32:57.911Z,47.67
2022-11-13T12:35:29.413Z,24.38
2022-11-13T12:38:08.386Z,292.63
2022-11-13T12:40:56.070Z,22.55
2022-11-13T12:44:04.025Z,22.42
2022-11-13T12:46:41.924Z,60.40
2022-11-13T12:49:37.637Z,26.85
2022-11-13T12:52:21.075Z,125.82
2022-11-13T12:54:48.635Z,251.80
2022-11-13T12:57:27.138Z,169.98
2022-11-13T13:00:00.757Z,268.55
2022-11-13T13:02:58.519Z,264.00
2022-11-13T13:06:08.575Z,111.85
2022-11-13T13:09:08.590Z,282.27
2022-11-13T13:12:07.591Z,173.50
2022-11-13T13:14:46.622Z,192.77
2022-11-13T13:17:21.657Z,196.85
2022-11-13T13:20:20.656Z,166.18
2022-11-13T13:23:08.414Z,215.48
2022-11-13T13:25:39.743Z,166.45
2022-11-13T13:28:21.673Z,66.60
2022-11-13T13:31:27.784Z,62.38
2022-11-13T13:34:55.166Z,110.20
2022-11-13T13:37:50.373Z,144.27
2022-11-13T13:40:59.919Z,87.25
2022-11-13T13:44:15.681Z,95.80
2022-11-13T13:46:43.985Z,64.10
2022-11-13T13:49:51.584Z,64.80
2022-11-13T13:52:29.075Z,70.55
2022-11-13T13:55:00.190Z,45.13
2022-11-13T13:57:30.720Z,32.40
2022-11-13T13:59:58.470Z,51.10
2022-11-13T14:02:25.868Z,35.72
2022-11-13T14:04:54.863Z,47.47
2022-11-13T14:07:29.061Z,56.03
2022-11-13T14:10:31.357Z,27.42
2022-11-13T14:13:01.787Z,33.20
2022-11-13T14:15:50.604Z,28.37
2022-11-13T14:18:25.024Z,31.05
2022-11-13T14:20:56.369Z,34.65
2022-11-13T14:23:38.072Z,27.98
2022-11-13T14:26:06.693Z,28.75
2022-11-13T14:28:52.360Z,39.00
2022-11-13T14:31:26.885Z,29.67
2022-11-13T14:33:54.305Z,52.55
2022-11-13T14:36:34.971Z,54.63
2022-11-13T14:39:02.165Z,32.47
2022-11-13T14:41:35.822Z,40.95
2022-11-13T14:44:03.840Z,32.08
2022-11-13T14:46:43.096Z,27.25
2022-11-13T14:49:35.625Z,28.13
2022-11-13T14:52:03.141Z,25.80
2022-11-13T14:55:08.298Z,23.50
2022-11-13T14:57:25.547Z,25.55
2022-11-13T14:59:52.706Z,30.05
2022-11-13T15:02:20.502Z,25.20
2022-11-13T15:04:47.648Z,33.10
2022-11-13T15:07:32.720Z,26.83
2022-11-13T15:10:01.164Z,29.27
2022-11-13T15:12:28.642Z,32.33
2022-11-13T15:14:58.257Z,32.55
2022-11-13T15:17:28.236Z,28.63
2022-11-13T15:20:01.339Z,35.55
2022-11-13T15:22:32.368Z,35.67
2022-11-13T15:25:01.898Z,54.60
2022-11-13T15:27:32.530Z,54.28
2022-11-13T15:29:59.682Z,37.55
2022-11-13T15:32:29.170Z,37.13
2022-11-13T15:34:56.455Z,156.77
2022-11-13T15:37:23.682Z,52.55
2022-11-13T15:39:53.829Z,63.40
2022-11-13T15:42:35.682Z,51.92
2022-11-13T15:45:06.216Z,58.05
2022-11-13T15:47:36.740Z,48.58
2022-11-13T15:50:14.515Z,52.38
2022-11-13T15:52:48.394Z,49.03
2022-11-13T15:55:32.229Z,30.38
2022-11-13T15:58:06.140Z,52.78
2022-11-13T16:00:36.866Z,36.42
2022-11-13T16:03:11.198Z,44.60
2022-11-13T16:05:38.539Z,36.15
2022-11-13T16:08:12.802Z,32.17
2022-11-13T16:10:39.534Z,35.88
2022-11-13T16:13:06.282Z,28.77
2022-11-13T16:15:33.069Z,30.75
2022-11-13T16:18:01.233Z,30.17
2022-11-13T16:20:27.998Z,30.13
2022-11-13T16:22:55.068Z,26.52
2022-11-13T16:25:22.759Z,26.17
2022-11-13T16:27:50.977Z,25.48
2022-11-13T16:30:21.562Z,25.42
2022-11-13T16:32:48.841Z,30.45
2022-11-13T16:35:18.083Z,32.13
2022-11-13T16:37:45.159Z,31.27
2022-11-13T16:40:25.795Z,33.28
2022-11-13T16:42:53.765Z,31.00
2022-11-13T16:45:21.956Z,25.80
2022-11-13T16:47:50.453Z,30.15
2022-11-13T16:50:18.490Z,23.65
2022-11-13T16:52:45.311Z,25.98
2022-11-13T16:55:12.182Z,22.23
2022-11-13T16:57:40.053Z,30.85
2022-11-13T17:00:09.132Z,38.65
2022-11-13T17:02:36.012Z,27.58
2022-11-13T17:05:02.919Z,32.05
2022-11-13T17:07:29.872Z,28.55
2022-11-13T17:10:24.278Z,32.58
2022-11-13T17:12:43.415Z,23.30
2022-11-13T17:15:10.954Z,35.45
2022-11-13T17:17:37.705Z,43.23
2022-11-13T17:20:05.076Z,28.25
2022-11-13T17:22:31.820Z,30.15
2022-11-13T17:24:58.577Z,42.33
2022-11-13T17:27:25.352Z,60.38
2022-11-13T17:29:52.086Z,50.50
2022-11-13T17:32:38.398Z,42.38
2022-11-13T17:35:06.072Z,38.75
2022-11-13T17:37:32.852Z,41.10
2022-11-13T17:39:59.671Z,58.22
2022-11-13T17:42:28.479Z,51.30
2022-11-13T17:44:55.516Z,65.68
2022-11-13T17:47:22.607Z,43.30
2022-11-13T17:49:49.438Z,37.33
2022-11-13T17:52:16.254Z,74.78
2022-11-13T17:54:43.000Z,43.38
2022-11-13T17:57:10.300Z,34.33
2022-11-13T17:59:37.151Z,44.17
2022-11-13T18:02:04.448Z,45.63
2022-11-13T18:04:31.224Z,77.97
2022-11-13T18:06:58.533Z,98.00
2022-11-13T18:09:25.364Z,64.57
2022-11-13T18:11:52.138Z,52.90
2022-11-13T18:14:18.951Z,28.58
2022-11-13T18:16:45.883Z,27.15
2022-11-13T18:19:13.149Z,35.80
2022-11-13T18:21:40.782Z,34.20
2022-11-13T18:24:16.620Z,26.60
2022-11-13T18:26:43.969Z,21.10
2022-11-13T18:29:10.824Z,26.02
2022-11-13T18:31:38.022Z,24.33
2022-11-13T18:34:06.770Z,25.77
2022-11-13T18:36:34.606Z,30.55
2022-11-13T18:39:03.001Z,26.90
2022-11-13T18:41:30.714Z,21.65
2022-11-13T18:43:57.646Z,23.58
2022-11-13T18:46:25.069Z,25.48
2022-11-13T18:48:52.177Z,24.35
2022-11-13T18:51:22.883Z,40.08
2022-11-13T18:53:51.655Z,27.10
2022-11-13T18:56:27.978Z,31.23
2022-11-13T18:58:56.983Z,26.15
2022-11-13T19:01:27.745Z,29.17
2022-11-13T19:04:21.700Z,23.27
2022-11-13T19:06:45.879Z,27.67
2022-11-13T19:09:18.177Z,34.17
2022-11-13T19:16:02.455Z,42.85
2022-11-13T19:18:48.579Z,27.98
2022-11-13T19:21:29.399Z,59.15
2022-11-13T19:23:56.762Z,29.67
2022-11-13T19:26:23.558Z,41.40
2022-11-13T19:28:53.169Z,32.67
2022-11-13T19:31:26.325Z,36.53
2022-11-13T19:34:02.081Z,35.03
2022-11-13T19:36:30.941Z,29.77
2022-11-13T19:38:58.620Z,40.67
2022-11-13T19:41:28.348Z,30.65
2022-11-13T19:43:57.743Z,62.78
2022-11-13T19:46:24.489Z,49.83
2022-11-13T19:48:52.397Z,32.45
2022-11-13T19:51:24.581Z,26.05
2022-11-13T19:53:58.507Z,49.75
2022-11-13T19:56:28.460Z,156.57
2022-11-13T19:58:56.185Z,25.77
2022-11-13T20:01:31.712Z,64.75
2022-11-13T20:04:01.611Z,123.30
2022-11-13T20:06:31.630Z,65.50
2022-11-13T20:09:00.032Z,40.92
2022-11-13T20:11:27.069Z,80.63
2022-11-13T20:13:55.113Z,106.32
2022-11-13T20:16:23.378Z,45.90
2022-11-13T20:18:50.853Z,92.07
2022-11-13T20:21:30.292Z,49.75
2022-11-13T20:23:59.005Z,56.38
2022-11-13T20:26:26.222Z,65.35
2022-11-13T20:28:52.984Z,117.75
2022-11-13T20:31:23.221Z,29.75
2022-11-13T20:33:52.402Z,39.20
2022-11-13T20:36:19.690Z,40.15
2022-11-13T20:38:55.746Z,30.85
2022-11-13T20:41:24.107Z,21.25
2022-11-13T20:43:52.768Z,18.05
2022-11-13T20:46:21.095Z,30.88
2022-11-13T20:48:48.665Z,20.92
2022-11-13T20:51:18.246Z,15.48
2022-11-13T20:53:45.123Z,24.48
2022-11-13T20:56:13.152Z,21.33
2022-11-13T20:58:40.331Z,20.50
2022-11-13T21:01:19.940Z,19.33
2022-11-13T21:03:47.553Z,18.13
2022-11-13T21:06:20.784Z,17.52
2022-11-13T21:08:47.963Z,24.08
2022-11-13T21:11:18.997Z,15.38
2022-11-13T21:13:47.337Z,19.73
2022-11-13T21:16:14.118Z,39.08
2022-11-13T21:18:41.098Z,23.77
2022-11-13T21:21:10.658Z,42.25
2022-11-13T21:23:37.659Z,34.30
2022-11-13T21:26:07.154Z,31.52
2022-11-13T21:28:34.481Z,22.48
2022-11-13T21:31:21.629Z,29.63
2022-11-13T21:33:50.029Z,76.03
2022-11-13T21:36:21.822Z,98.65
2022-11-13T21:38:53.549Z,17.00
2022-11-13T21:41:21.984Z,46.25
2022-11-13T21:44:05.694Z,37.38
2022-11-13T21:46:35.502Z,27.77
2022-11-13T21:49:12.004Z,51.80
2022-11-13T21:51:41.640Z,71.25
2022-11-13T21:54:09.254Z,334.80
2022-11-13T21:56:38.312Z,207.10
2022-11-13T21:59:06.213Z,159.75
2022-11-13T22:01:38.161Z,160.40
2022-11-13T22:04:06.260Z,270.92
2022-11-13T22:06:39.641Z,162.82
2022-11-13T22:09:14.516Z,206.15
2022-11-13T22:11:41.876Z,249.90
2022-11-13T22:14:08.933Z,132.05
2022-11-13T22:16:40.507Z,130.38
2022-11-13T22:19:13.022Z,163.60
2022-11-13T22:21:40.133Z,102.07
2022-11-13T22:24:07.951Z,118.53
2022-11-13T22:26:41.561Z,175.73
2022-11-13T22:29:08.668Z,131.05
2022-11-13T22:31:36.552Z,91.55
2022-11-13T22:34:04.047Z,111.68
2022-11-13T22:36:36.306Z,80.43
2022-11-13T22:39:05.222Z,363.38
2022-11-13T22:41:34.909Z,407.50
2022-11-13T22:44:08.050Z,283.70
2022-11-13T22:46:36.238Z,477.58
2022-11-13T22:49:05.378Z,543.05
2022-11-13T22:51:40.963Z,122.43
2022-11-13T22:54:11.190Z,147.80
2022-11-13T22:56:40.138Z,350.33
2022-11-13T22:59:10.608Z,59.83
2022-11-13T23:01:39.672Z,201.00
2022-11-13T23:04:11.744Z,279.65
2022-11-13T23:06:38.653Z,47.38
2022-11-13T23:09:06.290Z,133.13
2022-11-13T23:11:40.069Z,184.90
2022-11-13T23:14:12.125Z,277.38
2022-11-13T23:16:39.968Z,261.77
2022-11-13T23:19:07.203Z,291.13
2022-11-13T23:21:34.319Z,319.60
2022-11-13T23:24:01.126Z,119.80
2022-11-13T23:26:28.460Z,142.77
2022-11-13T23:28:55.714Z,281.85
2022-11-13T23:31:23.121Z,69.57
2022-11-13T23:33:50.074Z,107.93
2022-11-13T23:36:18.018Z,212.93
2022-11-13T23:38:45.381Z,218.85
2022-11-13T23:41:12.513Z,84.55
2022-11-13T23:44:08.224Z,96.93
2022-11-13T23:46:26.148Z,141.55
2022-11-13T23:48:52.886Z,64.13
2022-11-13T23:51:19.641Z,142.25
2022-11-13T23:53:46.410Z,114.47
2022-11-13T23:56:13.150Z,54.85
2022-11-13T23:58:39.868Z,135.52
